sensor_id;sensor_type;location;lat;lon;timestamp;P1;durP1;ratioP1;P2;durP2;ratioP2
53281;SDS011;39167;52.794;6.892;2023-03-31T00:02:02;21.15;;;3.90;;
53281;SDS011;39167;52.794;6.892;2023-03-31T00:04:38;14.35;;;3.13;;
53281;SDS011;39167;52.794;6.892;2023-03-31T00:07:10;12.40;;;2.65;;
53281;SDS011;39167;52.794;6.892;2023-03-31T00:09:40;16.48;;;3.65;;
53281;SDS011;39167;52.794;6.892;2023-03-31T00:12:10;18.70;;;3.08;;
53281;SDS011;39167;52.794;6.892;2023-03-31T00:14:41;24.00;;;4.13;;
53281;SDS011;39167;52.794;6.892;2023-03-31T00:17:07;20.63;;;3.47;;
53281;SDS011;39167;52.794;6.892;2023-03-31T00:19:34;19.30;;;3.22;;
53281;SDS011;39167;52.794;6.892;2023-03-31T00:22:00;17.70;;;3.45;;
53281;SDS011;39167;52.794;6.892;2023-03-31T00:24:27;22.70;;;3.30;;
53281;SDS011;39167;52.794;6.892;2023-03-31T00:26:57;22.05;;;3.78;;
53281;SDS011;39167;52.794;6.892;2023-03-31T00:29:23;18.33;;;3.28;;
53281;SDS011;39167;52.794;6.892;2023-03-31T00:31:49;15.60;;;3.25;;
53281;SDS011;39167;52.794;6.892;2023-03-31T00:34:15;16.83;;;3.47;;
53281;SDS011;39167;52.794;6.892;2023-03-31T00:36:41;13.93;;;3.03;;
53281;SDS011;39167;52.794;6.892;2023-03-31T00:39:20;18.38;;;3.33;;
53281;SDS011;39167;52.794;6.892;2023-03-31T00:41:48;19.80;;;3.88;;
53281;SDS011;39167;52.794;6.892;2023-03-31T00:44:19;17.60;;;3.20;;
53281;SDS011;39167;52.794;6.892;2023-03-31T00:46:55;18.05;;;3.67;;
53281;SDS011;39167;52.794;6.892;2023-03-31T00:49:48;20.17;;;3.42;;
53281;SDS011;39167;52.794;6.892;2023-03-31T00:52:37;19.95;;;2.75;;
53281;SDS011;39167;52.794;6.892;2023-03-31T00:55:04;18.48;;;3.10;;
53281;SDS011;39167;52.794;6.892;2023-03-31T00:57:35;18.08;;;3.05;;
53281;SDS011;39167;52.794;6.892;2023-03-31T01:00:07;17.45;;;4.25;;
53281;SDS011;39167;52.794;6.892;2023-03-31T01:02:41;20.88;;;3.78;;
53281;SDS011;39167;52.794;6.892;2023-03-31T01:05:15;19.83;;;3.88;;
53281;SDS011;39167;52.794;6.892;2023-03-31T01:07:53;9.68;;;3.65;;
53281;SDS011;39167;52.794;6.892;2023-03-31T01:10:20;13.65;;;3.85;;
53281;SDS011;39167;52.794;6.892;2023-03-31T01:12:47;16.90;;;4.53;;
53281;SDS011;39167;52.794;6.892;2023-03-31T01:15:16;20.98;;;3.90;;
53281;SDS011;39167;52.794;6.892;2023-03-31T01:17:42;13.18;;;3.72;;
53281;SDS011;39167;52.794;6.892;2023-03-31T01:27:43;16.85;;;3.80;;
53281;SDS011;39167;52.794;6.892;2023-03-31T01:30:32;18.55;;;4.53;;
53281;SDS011;39167;52.794;6.892;2023-03-31T01:46:59;10.18;;;3.75;;
53281;SDS011;39167;52.794;6.892;2023-03-31T01:52:20;13.73;;;4.15;;
53281;SDS011;39167;52.794;6.892;2023-03-31T01:54:56;16.93;;;4.20;;
53281;SDS011;39167;52.794;6.892;2023-03-31T01:57:34;12.82;;;3.83;;
53281;SDS011;39167;52.794;6.892;2023-03-31T02:02:49;18.23;;;3.75;;
53281;SDS011;39167;52.794;6.892;2023-03-31T02:05:25;12.70;;;3.00;;
53281;SDS011;39167;52.794;6.892;2023-03-31T02:08:19;12.05;;;3.20;;
53281;SDS011;39167;52.794;6.892;2023-03-31T02:10:47;16.77;;;3.80;;
53281;SDS011;39167;52.794;6.892;2023-03-31T02:13:14;13.55;;;3.63;;
53281;SDS011;39167;52.794;6.892;2023-03-31T02:15:43;13.20;;;3.40;;
53281;SDS011;39167;52.794;6.892;2023-03-31T02:18:13;20.08;;;3.92;;
53281;SDS011;39167;52.794;6.892;2023-03-31T02:20:43;15.75;;;3.75;;
53281;SDS011;39167;52.794;6.892;2023-03-31T02:23:13;9.60;;;3.30;;
53281;SDS011;39167;52.794;6.892;2023-03-31T02:25:42;14.52;;;3.63;;
53281;SDS011;39167;52.794;6.892;2023-03-31T02:28:14;17.52;;;3.50;;
53281;SDS011;39167;52.794;6.892;2023-03-31T02:33:30;15.05;;;4.28;;
53281;SDS011;39167;52.794;6.892;2023-03-31T02:35:56;12.80;;;3.25;;
53281;SDS011;39167;52.794;6.892;2023-03-31T02:38:23;9.43;;;3.28;;
53281;SDS011;39167;52.794;6.892;2023-03-31T02:40:49;13.45;;;3.45;;
53281;SDS011;39167;52.794;6.892;2023-03-31T02:43:15;10.93;;;3.47;;
53281;SDS011;39167;52.794;6.892;2023-03-31T02:45:50;11.93;;;3.17;;
53281;SDS011;39167;52.794;6.892;2023-03-31T02:48:26;13.13;;;3.17;;
53281;SDS011;39167;52.794;6.892;2023-03-31T02:53:38;13.73;;;2.77;;
53281;SDS011;39167;52.794;6.892;2023-03-31T03:04:20;10.55;;;3.13;;
53281;SDS011;39167;52.794;6.892;2023-03-31T03:15:32;8.70;;;2.72;;
53281;SDS011;39167;52.794;6.892;2023-03-31T03:18:38;10.50;;;2.63;;
53281;SDS011;39167;52.794;6.892;2023-03-31T03:21:03;11.68;;;2.58;;
53281;SDS011;39167;52.794;6.892;2023-03-31T03:23:29;8.70;;;2.97;;
53281;SDS011;39167;52.794;6.892;2023-03-31T03:25:55;10.05;;;2.90;;
53281;SDS011;39167;52.794;6.892;2023-03-31T03:28:21;8.68;;;3.13;;
53281;SDS011;39167;52.794;6.892;2023-03-31T03:30:47;11.68;;;3.60;;
53281;SDS011;39167;52.794;6.892;2023-03-31T03:33:13;10.68;;;3.40;;
53281;SDS011;39167;52.794;6.892;2023-03-31T03:35:41;8.63;;;2.95;;
53281;SDS011;39167;52.794;6.892;2023-03-31T03:38:07;9.38;;;3.15;;
53281;SDS011;39167;52.794;6.892;2023-03-31T03:40:33;11.35;;;3.53;;
53281;SDS011;39167;52.794;6.892;2023-03-31T03:42:59;7.72;;;2.95;;
53281;SDS011;39167;52.794;6.892;2023-03-31T03:45:25;10.98;;;3.05;;
53281;SDS011;39167;52.794;6.892;2023-03-31T03:47:50;11.70;;;4.07;;
53281;SDS011;39167;52.794;6.892;2023-03-31T03:50:16;16.38;;;3.05;;
53281;SDS011;39167;52.794;6.892;2023-03-31T03:52:42;14.88;;;3.38;;
53281;SDS011;39167;52.794;6.892;2023-03-31T03:55:08;11.65;;;3.13;;
53281;SDS011;39167;52.794;6.892;2023-03-31T03:57:36;10.65;;;3.03;;
53281;SDS011;39167;52.794;6.892;2023-03-31T04:00:02;12.88;;;3.60;;
53281;SDS011;39167;52.794;6.892;2023-03-31T04:02:34;10.13;;;3.35;;
53281;SDS011;39167;52.794;6.892;2023-03-31T04:04:59;10.35;;;3.17;;
53281;SDS011;39167;52.794;6.892;2023-03-31T04:07:25;8.90;;;3.50;;
53281;SDS011;39167;52.794;6.892;2023-03-31T04:09:51;6.50;;;2.70;;
53281;SDS011;39167;52.794;6.892;2023-03-31T04:12:16;8.02;;;3.15;;
53281;SDS011;39167;52.794;6.892;2023-03-31T04:14:42;8.13;;;2.85;;
53281;SDS011;39167;52.794;6.892;2023-03-31T04:17:08;7.45;;;2.85;;
53281;SDS011;39167;52.794;6.892;2023-03-31T04:19:34;7.88;;;2.42;;
53281;SDS011;39167;52.794;6.892;2023-03-31T04:22:00;6.75;;;3.15;;
53281;SDS011;39167;52.794;6.892;2023-03-31T04:24:27;10.27;;;3.05;;
53281;SDS011;39167;52.794;6.892;2023-03-31T04:26:57;7.10;;;2.80;;
53281;SDS011;39167;52.794;6.892;2023-03-31T04:29:24;8.35;;;3.00;;
53281;SDS011;39167;52.794;6.892;2023-03-31T04:31:53;10.38;;;2.95;;
53281;SDS011;39167;52.794;6.892;2023-03-31T04:34:23;7.57;;;3.05;;
53281;SDS011;39167;52.794;6.892;2023-03-31T04:36:59;10.20;;;3.35;;
53281;SDS011;39167;52.794;6.892;2023-03-31T04:39:27;9.70;;;3.03;;
53281;SDS011;39167;52.794;6.892;2023-03-31T04:41:57;7.72;;;3.05;;
53281;SDS011;39167;52.794;6.892;2023-03-31T04:44:24;7.63;;;3.08;;
53281;SDS011;39167;52.794;6.892;2023-03-31T04:46:50;8.35;;;2.97;;
53281;SDS011;39167;52.794;6.892;2023-03-31T04:49:16;7.65;;;2.92;;
53281;SDS011;39167;52.794;6.892;2023-03-31T04:51:42;10.10;;;2.70;;
53281;SDS011;39167;52.794;6.892;2023-03-31T04:54:09;12.68;;;3.30;;
53281;SDS011;39167;52.794;6.892;2023-03-31T04:56:34;8.45;;;3.55;;
53281;SDS011;39167;52.794;6.892;2023-03-31T04:59:00;8.82;;;3.08;;
53281;SDS011;39167;52.794;6.892;2023-03-31T05:01:28;11.43;;;3.08;;
53281;SDS011;39167;52.794;6.892;2023-03-31T05:03:57;9.88;;;3.40;;
53281;SDS011;39167;52.794;6.892;2023-03-31T05:06:23;9.07;;;3.13;;
53281;SDS011;39167;52.794;6.892;2023-03-31T05:08:49;6.75;;;3.28;;
53281;SDS011;39167;52.794;6.892;2023-03-31T05:11:15;12.73;;;3.53;;
53281;SDS011;39167;52.794;6.892;2023-03-31T05:13:41;10.55;;;3.20;;
53281;SDS011;39167;52.794;6.892;2023-03-31T05:16:08;11.85;;;3.47;;
53281;SDS011;39167;52.794;6.892;2023-03-31T05:18:36;9.77;;;3.25;;
53281;SDS011;39167;52.794;6.892;2023-03-31T05:21:12;12.13;;;3.38;;
53281;SDS011;39167;52.794;6.892;2023-03-31T05:23:40;9.77;;;3.83;;
53281;SDS011;39167;52.794;6.892;2023-03-31T05:26:06;7.75;;;2.70;;
53281;SDS011;39167;52.794;6.892;2023-03-31T05:28:33;12.25;;;3.63;;
53281;SDS011;39167;52.794;6.892;2023-03-31T05:30:59;9.00;;;3.50;;
53281;SDS011;39167;52.794;6.892;2023-03-31T05:33:26;11.50;;;3.20;;
53281;SDS011;39167;52.794;6.892;2023-03-31T05:35:52;8.57;;;3.75;;
53281;SDS011;39167;52.794;6.892;2023-03-31T05:38:18;10.90;;;3.83;;
53281;SDS011;39167;52.794;6.892;2023-03-31T05:40:45;10.27;;;4.35;;
53281;SDS011;39167;52.794;6.892;2023-03-31T05:43:14;12.25;;;5.38;;
53281;SDS011;39167;52.794;6.892;2023-03-31T05:45:40;12.18;;;5.22;;
53281;SDS011;39167;52.794;6.892;2023-03-31T05:48:05;14.77;;;6.00;;
53281;SDS011;39167;52.794;6.892;2023-03-31T05:50:31;9.63;;;4.63;;
53281;SDS011;39167;52.794;6.892;2023-03-31T05:52:57;13.30;;;4.47;;
53281;SDS011;39167;52.794;6.892;2023-03-31T05:55:23;13.63;;;4.32;;
53281;SDS011;39167;52.794;6.892;2023-03-31T05:57:49;11.52;;;4.40;;
53281;SDS011;39167;52.794;6.892;2023-03-31T06:00:15;11.70;;;5.00;;
53281;SDS011;39167;52.794;6.892;2023-03-31T06:02:41;10.88;;;3.90;;
53281;SDS011;39167;52.794;6.892;2023-03-31T06:05:07;11.77;;;5.03;;
53281;SDS011;39167;52.794;6.892;2023-03-31T06:07:33;11.43;;;4.65;;
53281;SDS011;39167;52.794;6.892;2023-03-31T06:09:59;12.05;;;4.35;;
53281;SDS011;39167;52.794;6.892;2023-03-31T06:12:24;10.57;;;3.78;;
53281;SDS011;39167;52.794;6.892;2023-03-31T06:14:50;10.70;;;3.92;;
53281;SDS011;39167;52.794;6.892;2023-03-31T06:17:16;10.77;;;4.97;;
53281;SDS011;39167;52.794;6.892;2023-03-31T06:19:41;8.93;;;4.20;;
53281;SDS011;39167;52.794;6.892;2023-03-31T06:22:07;11.98;;;3.97;;
53281;SDS011;39167;52.794;6.892;2023-03-31T06:24:33;9.60;;;3.95;;
53281;SDS011;39167;52.794;6.892;2023-03-31T06:26:58;8.32;;;3.58;;
53281;SDS011;39167;52.794;6.892;2023-03-31T06:29:25;13.13;;;4.10;;
53281;SDS011;39167;52.794;6.892;2023-03-31T06:31:51;8.60;;;4.07;;
53281;SDS011;39167;52.794;6.892;2023-03-31T06:34:17;11.48;;;3.88;;
53281;SDS011;39167;52.794;6.892;2023-03-31T06:36:43;11.00;;;3.92;;
53281;SDS011;39167;52.794;6.892;2023-03-31T06:39:09;8.35;;;4.30;;
53281;SDS011;39167;52.794;6.892;2023-03-31T06:41:34;10.73;;;4.28;;
53281;SDS011;39167;52.794;6.892;2023-03-31T06:44:01;9.50;;;3.80;;
53281;SDS011;39167;52.794;6.892;2023-03-31T06:46:27;8.38;;;3.53;;
53281;SDS011;39167;52.794;6.892;2023-03-31T06:48:52;9.90;;;3.83;;
53281;SDS011;39167;52.794;6.892;2023-03-31T06:51:18;11.68;;;4.03;;
53281;SDS011;39167;52.794;6.892;2023-03-31T06:53:44;11.02;;;3.60;;
53281;SDS011;39167;52.794;6.892;2023-03-31T06:56:09;10.32;;;4.07;;
53281;SDS011;39167;52.794;6.892;2023-03-31T06:58:35;10.70;;;3.65;;
53281;SDS011;39167;52.794;6.892;2023-03-31T07:01:04;13.32;;;4.03;;
53281;SDS011;39167;52.794;6.892;2023-03-31T07:03:31;7.13;;;3.85;;
53281;SDS011;39167;52.794;6.892;2023-03-31T07:05:57;12.13;;;4.22;;
53281;SDS011;39167;52.794;6.892;2023-03-31T07:08:23;16.17;;;4.32;;
53281;SDS011;39167;52.794;6.892;2023-03-31T07:10:52;10.00;;;3.67;;
53281;SDS011;39167;52.794;6.892;2023-03-31T07:13:21;16.60;;;4.97;;
53281;SDS011;39167;52.794;6.892;2023-03-31T07:15:48;12.55;;;5.15;;
53281;SDS011;39167;52.794;6.892;2023-03-31T07:18:14;12.15;;;5.38;;
53281;SDS011;39167;52.794;6.892;2023-03-31T07:20:41;11.88;;;4.43;;
53281;SDS011;39167;52.794;6.892;2023-03-31T07:23:10;10.80;;;4.72;;
53281;SDS011;39167;52.794;6.892;2023-03-31T07:25:36;11.27;;;4.75;;
53281;SDS011;39167;52.794;6.892;2023-03-31T07:28:02;11.20;;;4.65;;
53281;SDS011;39167;52.794;6.892;2023-03-31T07:30:30;12.35;;;5.07;;
53281;SDS011;39167;52.794;6.892;2023-03-31T07:32:56;10.35;;;4.63;;
53281;SDS011;39167;52.794;6.892;2023-03-31T07:35:22;10.20;;;3.85;;
53281;SDS011;39167;52.794;6.892;2023-03-31T07:37:49;7.65;;;3.47;;
53281;SDS011;39167;52.794;6.892;2023-03-31T07:40:17;10.30;;;4.00;;
53281;SDS011;39167;52.794;6.892;2023-03-31T07:42:51;11.07;;;3.78;;
53281;SDS011;39167;52.794;6.892;2023-03-31T07:45:17;10.07;;;3.75;;
53281;SDS011;39167;52.794;6.892;2023-03-31T07:47:45;14.52;;;4.30;;
53281;SDS011;39167;52.794;6.892;2023-03-31T07:50:11;18.58;;;4.13;;
53281;SDS011;39167;52.794;6.892;2023-03-31T07:52:39;16.83;;;4.90;;
53281;SDS011;39167;52.794;6.892;2023-03-31T07:55:06;13.27;;;5.30;;
53281;SDS011;39167;52.794;6.892;2023-03-31T07:57:33;12.25;;;4.88;;
53281;SDS011;39167;52.794;6.892;2023-03-31T08:00:00;8.85;;;4.30;;
53281;SDS011;39167;52.794;6.892;2023-03-31T08:02:30;10.70;;;4.78;;
53281;SDS011;39167;52.794;6.892;2023-03-31T08:04:56;11.68;;;4.57;;
53281;SDS011;39167;52.794;6.892;2023-03-31T08:07:21;8.38;;;3.63;;
53281;SDS011;39167;52.794;6.892;2023-03-31T08:09:47;10.48;;;4.15;;
53281;SDS011;39167;52.794;6.892;2023-03-31T08:12:14;9.80;;;3.95;;
53281;SDS011;39167;52.794;6.892;2023-03-31T08:14:40;11.20;;;4.40;;
53281;SDS011;39167;52.794;6.892;2023-03-31T08:17:06;9.20;;;4.07;;
53281;SDS011;39167;52.794;6.892;2023-03-31T08:19:32;7.68;;;3.70;;
53281;SDS011;39167;52.794;6.892;2023-03-31T08:21:58;12.05;;;4.13;;
53281;SDS011;39167;52.794;6.892;2023-03-31T08:24:24;11.70;;;4.40;;
53281;SDS011;39167;52.794;6.892;2023-03-31T08:26:49;9.15;;;4.03;;
53281;SDS011;39167;52.794;6.892;2023-03-31T08:29:18;10.60;;;4.20;;
53281;SDS011;39167;52.794;6.892;2023-03-31T08:31:43;10.77;;;4.70;;
53281;SDS011;39167;52.794;6.892;2023-03-31T08:34:09;13.88;;;4.75;;
53281;SDS011;39167;52.794;6.892;2023-03-31T08:36:35;9.40;;;3.85;;
53281;SDS011;39167;52.794;6.892;2023-03-31T08:39:02;11.48;;;4.50;;
53281;SDS011;39167;52.794;6.892;2023-03-31T08:44:24;12.50;;;4.55;;
53281;SDS011;39167;52.794;6.892;2023-03-31T08:46:56;11.32;;;3.83;;
53281;SDS011;39167;52.794;6.892;2023-03-31T08:49:26;12.70;;;3.70;;
53281;SDS011;39167;52.794;6.892;2023-03-31T08:51:58;12.10;;;4.18;;
53281;SDS011;39167;52.794;6.892;2023-03-31T08:54:39;11.95;;;4.35;;
53281;SDS011;39167;52.794;6.892;2023-03-31T08:57:13;13.02;;;3.50;;
53281;SDS011;39167;52.794;6.892;2023-03-31T08:59:43;9.50;;;3.30;;
53281;SDS011;39167;52.794;6.892;2023-03-31T09:02:31;8.82;;;3.22;;
53281;SDS011;39167;52.794;6.892;2023-03-31T09:15:39;10.40;;;2.80;;
53281;SDS011;39167;52.794;6.892;2023-03-31T09:18:16;10.48;;;2.95;;
53281;SDS011;39167;52.794;6.892;2023-03-31T09:20:49;10.45;;;2.75;;
53281;SDS011;39167;52.794;6.892;2023-03-31T09:26:03;10.65;;;2.67;;
53281;SDS011;39167;52.794;6.892;2023-03-31T09:28:33;8.18;;;2.50;;
53281;SDS011;39167;52.794;6.892;2023-03-31T09:31:03;8.73;;;2.15;;
53281;SDS011;39167;52.794;6.892;2023-03-31T09:33:37;8.18;;;2.13;;
53281;SDS011;39167;52.794;6.892;2023-03-31T09:36:12;7.40;;;2.10;;
53281;SDS011;39167;52.794;6.892;2023-03-31T09:38:41;8.90;;;2.55;;
53281;SDS011;39167;52.794;6.892;2023-03-31T09:41:08;7.03;;;2.08;;
53281;SDS011;39167;52.794;6.892;2023-03-31T09:43:35;8.85;;;2.00;;
53281;SDS011;39167;52.794;6.892;2023-03-31T09:51:40;5.38;;;1.90;;
53281;SDS011;39167;52.794;6.892;2023-03-31T09:54:26;5.70;;;2.03;;
53281;SDS011;39167;52.794;6.892;2023-03-31T09:56:58;5.55;;;1.90;;
53281;SDS011;39167;52.794;6.892;2023-03-31T09:59:32;6.40;;;2.15;;
53281;SDS011;39167;52.794;6.892;2023-03-31T10:01:59;6.50;;;1.98;;
53281;SDS011;39167;52.794;6.892;2023-03-31T10:04:31;7.95;;;2.28;;
53281;SDS011;39167;52.794;6.892;2023-03-31T10:06:58;7.20;;;2.22;;
53281;SDS011;39167;52.794;6.892;2023-03-31T10:09:28;6.43;;;2.25;;
53281;SDS011;39167;52.794;6.892;2023-03-31T10:12:05;7.00;;;2.30;;
53281;SDS011;39167;52.794;6.892;2023-03-31T10:14:43;7.18;;;1.95;;
53281;SDS011;39167;52.794;6.892;2023-03-31T10:17:14;6.05;;;1.83;;
53281;SDS011;39167;52.794;6.892;2023-03-31T10:19:58;5.20;;;1.65;;
53281;SDS011;39167;52.794;6.892;2023-03-31T10:22:31;8.75;;;2.05;;
53281;SDS011;39167;52.794;6.892;2023-03-31T10:25:14;3.22;;;1.70;;
53281;SDS011;39167;52.794;6.892;2023-03-31T10:27:42;5.50;;;1.70;;
53281;SDS011;39167;52.794;6.892;2023-03-31T10:30:23;5.47;;;1.73;;
53281;SDS011;39167;52.794;6.892;2023-03-31T10:32:52;5.45;;;1.75;;
53281;SDS011;39167;52.794;6.892;2023-03-31T10:37:53;4.32;;;1.20;;
53281;SDS011;39167;52.794;6.892;2023-03-31T10:40:25;4.70;;;1.38;;
53281;SDS011;39167;52.794;6.892;2023-03-31T10:45:42;3.70;;;1.40;;
53281;SDS011;39167;52.794;6.892;2023-03-31T10:50:52;6.15;;;1.63;;
53281;SDS011;39167;52.794;6.892;2023-03-31T10:53:23;6.03;;;1.50;;
53281;SDS011;39167;52.794;6.892;2023-03-31T10:59:41;2.58;;;1.23;;
53281;SDS011;39167;52.794;6.892;2023-03-31T11:07:45;6.05;;;1.17;;
53281;SDS011;39167;52.794;6.892;2023-03-31T11:13:00;5.63;;;1.40;;
53281;SDS011;39167;52.794;6.892;2023-03-31T11:15:47;5.75;;;1.73;;
53281;SDS011;39167;52.794;6.892;2023-03-31T11:18:55;4.47;;;1.80;;
53281;SDS011;39167;52.794;6.892;2023-03-31T11:29:43;6.53;;;1.85;;
53281;SDS011;39167;52.794;6.892;2023-03-31T11:32:29;5.88;;;1.58;;
53281;SDS011;39167;52.794;6.892;2023-03-31T11:35:42;4.45;;;1.50;;
53281;SDS011;39167;52.794;6.892;2023-03-31T11:41:54;3.23;;;1.70;;
53281;SDS011;39167;52.794;6.892;2023-03-31T11:44:04;5.25;;;1.92;;
53281;SDS011;39167;52.794;6.892;2023-03-31T11:49:08;6.07;;;2.10;;
53281;SDS011;39167;52.794;6.892;2023-03-31T11:55:11;6.73;;;2.00;;
53281;SDS011;39167;52.794;6.892;2023-03-31T12:00:11;10.52;;;2.35;;
53281;SDS011;39167;52.794;6.892;2023-03-31T12:02:51;6.82;;;2.25;;
53281;SDS011;39167;52.794;6.892;2023-03-31T12:05:43;8.50;;;2.20;;
53281;SDS011;39167;52.794;6.892;2023-03-31T12:10:59;10.68;;;2.40;;
53281;SDS011;39167;52.794;6.892;2023-03-31T12:16:20;11.02;;;2.42;;
53281;SDS011;39167;52.794;6.892;2023-03-31T12:18:58;11.10;;;3.53;;
53281;SDS011;39167;52.794;6.892;2023-03-31T12:21:36;11.82;;;2.92;;
53281;SDS011;39167;52.794;6.892;2023-03-31T12:24:04;9.00;;;2.70;;
53281;SDS011;39167;52.794;6.892;2023-03-31T12:26:33;8.05;;;2.20;;
53281;SDS011;39167;52.794;6.892;2023-03-31T12:29:20;9.90;;;3.13;;
53281;SDS011;39167;52.794;6.892;2023-03-31T12:31:47;8.27;;;2.80;;
53281;SDS011;39167;52.794;6.892;2023-03-31T12:34:20;9.85;;;3.38;;
53281;SDS011;39167;52.794;6.892;2023-03-31T12:37:02;9.15;;;3.03;;
53281;SDS011;39167;52.794;6.892;2023-03-31T12:42:53;11.52;;;2.97;;
53281;SDS011;39167;52.794;6.892;2023-03-31T12:45:41;8.60;;;3.30;;
53281;SDS011;39167;52.794;6.892;2023-03-31T12:51:02;8.63;;;3.40;;
53281;SDS011;39167;52.794;6.892;2023-03-31T12:53:40;13.18;;;3.63;;
53281;SDS011;39167;52.794;6.892;2023-03-31T12:56:22;9.68;;;3.50;;
53281;SDS011;39167;52.794;6.892;2023-03-31T12:58:47;10.95;;;3.90;;
53281;SDS011;39167;52.794;6.892;2023-03-31T13:04:06;16.00;;;4.43;;
53281;SDS011;39167;52.794;6.892;2023-03-31T13:11:36;11.25;;;3.55;;
53281;SDS011;39167;52.794;6.892;2023-03-31T13:14:23;13.43;;;3.55;;
53281;SDS011;39167;52.794;6.892;2023-03-31T13:19:46;15.55;;;3.72;;
53281;SDS011;39167;52.794;6.892;2023-03-31T13:24:53;17.33;;;3.15;;
53281;SDS011;39167;52.794;6.892;2023-03-31T13:27:45;11.82;;;2.55;;
53281;SDS011;39167;52.794;6.892;2023-03-31T13:33:19;15.27;;;3.58;;
53281;SDS011;39167;52.794;6.892;2023-03-31T13:36:04;15.15;;;2.65;;
53281;SDS011;39167;52.794;6.892;2023-03-31T13:41:29;13.55;;;2.88;;
53281;SDS011;39167;52.794;6.892;2023-03-31T13:50:12;16.15;;;2.63;;
53281;SDS011;39167;52.794;6.892;2023-03-31T13:59:03;9.32;;;2.78;;
53281;SDS011;39167;52.794;6.892;2023-03-31T14:01:45;13.75;;;3.08;;
53281;SDS011;39167;52.794;6.892;2023-03-31T14:04:15;13.38;;;2.83;;
53281;SDS011;39167;52.794;6.892;2023-03-31T14:07:09;8.60;;;3.00;;
53281;SDS011;39167;52.794;6.892;2023-03-31T14:09:41;12.48;;;2.58;;
53281;SDS011;39167;52.794;6.892;2023-03-31T14:14:54;17.60;;;3.10;;
53281;SDS011;39167;52.794;6.892;2023-03-31T14:17:39;15.20;;;2.78;;
53281;SDS011;39167;52.794;6.892;2023-03-31T14:25:52;10.73;;;2.47;;
53281;SDS011;39167;52.794;6.892;2023-03-31T14:39:13;11.57;;;2.83;;
53281;SDS011;39167;52.794;6.892;2023-03-31T14:41:48;12.80;;;2.63;;
53281;SDS011;39167;52.794;6.892;2023-03-31T14:44:18;9.63;;;2.28;;
53281;SDS011;39167;52.794;6.892;2023-03-31T14:46:44;9.80;;;2.65;;
53281;SDS011;39167;52.794;6.892;2023-03-31T14:52:16;14.52;;;3.05;;
53281;SDS011;39167;52.794;6.892;2023-03-31T14:54:47;11.27;;;2.75;;
53281;SDS011;39167;52.794;6.892;2023-03-31T14:57:15;9.15;;;2.15;;
53281;SDS011;39167;52.794;6.892;2023-03-31T15:02:13;10.07;;;2.63;;
53281;SDS011;39167;52.794;6.892;2023-03-31T15:04:43;8.15;;;2.40;;
53281;SDS011;39167;52.794;6.892;2023-03-31T15:07:13;12.48;;;2.55;;
53281;SDS011;39167;52.794;6.892;2023-03-31T15:09:41;13.85;;;2.55;;
53281;SDS011;39167;52.794;6.892;2023-03-31T15:12:14;9.20;;;2.22;;
53281;SDS011;39167;52.794;6.892;2023-03-31T15:14:45;8.68;;;2.15;;
53281;SDS011;39167;52.794;6.892;2023-03-31T15:17:34;11.32;;;2.88;;
53281;SDS011;39167;52.794;6.892;2023-03-31T15:22:53;11.38;;;2.47;;
53281;SDS011;39167;52.794;6.892;2023-03-31T15:25:28;12.40;;;2.17;;
53281;SDS011;39167;52.794;6.892;2023-03-31T15:28:02;10.38;;;2.25;;
53281;SDS011;39167;52.794;6.892;2023-03-31T15:30:35;13.35;;;3.38;;
53281;SDS011;39167;52.794;6.892;2023-03-31T15:33:04;9.63;;;2.45;;
53281;SDS011;39167;52.794;6.892;2023-03-31T15:35:32;10.43;;;2.63;;
53281;SDS011;39167;52.794;6.892;2023-03-31T15:38:01;12.77;;;3.13;;
53281;SDS011;39167;52.794;6.892;2023-03-31T15:40:35;16.42;;;3.65;;
53281;SDS011;39167;52.794;6.892;2023-03-31T15:48:18;14.23;;;4.10;;
53281;SDS011;39167;52.794;6.892;2023-03-31T15:50:45;14.77;;;3.35;;
53281;SDS011;39167;52.794;6.892;2023-03-31T15:55:56;14.68;;;3.38;;
53281;SDS011;39167;52.794;6.892;2023-03-31T15:58:45;13.52;;;3.55;;
53281;SDS011;39167;52.794;6.892;2023-03-31T16:01:16;11.95;;;4.70;;
53281;SDS011;39167;52.794;6.892;2023-03-31T16:03:42;12.43;;;4.07;;
53281;SDS011;39167;52.794;6.892;2023-03-31T16:09:07;14.02;;;4.40;;
53281;SDS011;39167;52.794;6.892;2023-03-31T16:11:39;12.95;;;3.95;;
53281;SDS011;39167;52.794;6.892;2023-03-31T16:14:10;12.90;;;3.10;;
53281;SDS011;39167;52.794;6.892;2023-03-31T16:16:44;10.02;;;2.13;;
53281;SDS011;39167;52.794;6.892;2023-03-31T16:19:17;5.68;;;1.63;;
53281;SDS011;39167;52.794;6.892;2023-03-31T16:21:47;8.18;;;2.10;;
53281;SDS011;39167;52.794;6.892;2023-03-31T16:24:17;11.45;;;2.97;;
53281;SDS011;39167;52.794;6.892;2023-03-31T16:26:45;7.75;;;1.88;;
53281;SDS011;39167;52.794;6.892;2023-03-31T16:29:19;7.80;;;1.90;;
53281;SDS011;39167;52.794;6.892;2023-03-31T16:31:46;8.48;;;2.10;;
53281;SDS011;39167;52.794;6.892;2023-03-31T16:34:12;11.85;;;4.22;;
53281;SDS011;39167;52.794;6.892;2023-03-31T16:36:38;11.07;;;2.10;;
53281;SDS011;39167;52.794;6.892;2023-03-31T16:39:04;9.45;;;2.22;;
53281;SDS011;39167;52.794;6.892;2023-03-31T16:41:31;9.15;;;1.90;;
53281;SDS011;39167;52.794;6.892;2023-03-31T16:43:58;10.77;;;2.80;;
53281;SDS011;39167;52.794;6.892;2023-03-31T16:46:24;8.52;;;2.72;;
53281;SDS011;39167;52.794;6.892;2023-03-31T16:48:50;9.15;;;2.35;;
53281;SDS011;39167;52.794;6.892;2023-03-31T16:51:16;11.30;;;3.10;;
53281;SDS011;39167;52.794;6.892;2023-03-31T16:53:43;7.60;;;2.10;;
53281;SDS011;39167;52.794;6.892;2023-03-31T16:56:10;9.85;;;2.65;;
53281;SDS011;39167;52.794;6.892;2023-03-31T16:58:37;10.32;;;2.78;;
53281;SDS011;39167;52.794;6.892;2023-03-31T17:01:04;10.50;;;2.45;;
53281;SDS011;39167;52.794;6.892;2023-03-31T17:03:31;7.95;;;2.33;;
53281;SDS011;39167;52.794;6.892;2023-03-31T17:06:02;6.38;;;1.85;;
53281;SDS011;39167;52.794;6.892;2023-03-31T17:08:33;11.70;;;2.88;;
53281;SDS011;39167;52.794;6.892;2023-03-31T17:11:00;8.40;;;3.00;;
53281;SDS011;39167;52.794;6.892;2023-03-31T17:13:28;11.25;;;3.47;;
53281;SDS011;39167;52.794;6.892;2023-03-31T17:15:55;5.70;;;2.47;;
53281;SDS011;39167;52.794;6.892;2023-03-31T17:18:20;8.90;;;3.50;;
53281;SDS011;39167;52.794;6.892;2023-03-31T17:20:46;7.18;;;2.75;;
53281;SDS011;39167;52.794;6.892;2023-03-31T17:23:12;11.98;;;5.85;;
53281;SDS011;39167;52.794;6.892;2023-03-31T17:25:44;11.60;;;5.47;;
53281;SDS011;39167;52.794;6.892;2023-03-31T17:28:11;7.60;;;2.88;;
53281;SDS011;39167;52.794;6.892;2023-03-31T17:30:37;10.52;;;4.20;;
53281;SDS011;39167;52.794;6.892;2023-03-31T17:33:03;6.75;;;2.95;;
53281;SDS011;39167;52.794;6.892;2023-03-31T17:35:29;8.20;;;2.25;;
53281;SDS011;39167;52.794;6.892;2023-03-31T17:37:55;6.95;;;2.63;;
53281;SDS011;39167;52.794;6.892;2023-03-31T17:40:21;7.90;;;2.60;;
53281;SDS011;39167;52.794;6.892;2023-03-31T17:42:48;8.80;;;2.95;;
53281;SDS011;39167;52.794;6.892;2023-03-31T17:45:14;8.10;;;4.85;;
53281;SDS011;39167;52.794;6.892;2023-03-31T17:47:40;10.02;;;3.50;;
53281;SDS011;39167;52.794;6.892;2023-03-31T17:50:07;10.15;;;3.80;;
53281;SDS011;39167;52.794;6.892;2023-03-31T17:52:33;7.00;;;2.13;;
53281;SDS011;39167;52.794;6.892;2023-03-31T17:55:00;13.05;;;5.88;;
53281;SDS011;39167;52.794;6.892;2023-03-31T17:57:28;7.47;;;3.42;;
53281;SDS011;39167;52.794;6.892;2023-03-31T17:59:54;9.68;;;3.92;;
53281;SDS011;39167;52.794;6.892;2023-03-31T18:02:21;7.03;;;2.83;;
53281;SDS011;39167;52.794;6.892;2023-03-31T18:04:50;9.32;;;3.05;;
53281;SDS011;39167;52.794;6.892;2023-03-31T18:07:19;8.57;;;2.65;;
53281;SDS011;39167;52.794;6.892;2023-03-31T18:09:47;10.80;;;3.03;;
53281;SDS011;39167;52.794;6.892;2023-03-31T18:12:13;8.02;;;2.42;;